Time;durP1;ratioP1;P1;durP2;ratioP2;P2;SDS_P1;SDS_P2;PMS_P1;PMS_P2;Temp;Humidity;BMP_temperature;BMP_pressure;BME280_temperature;BME280_humidity;BME280_pressure;Samples;Min_cycle;Max_cycle;Signal;HPM_P1;HPM_P2
2022/03/03 00:01:14;;;;;;;19.23;7.90;;;;;;;;;;5062888;28;20028;-73
2022/03/03 00:03:40;;;;;;;11.90;8.13;;;;;;;;;;5064657;28;20077;-73
2022/03/03 00:06:05;;;;;;;13.07;8.02;;;;;;;;;;5063817;28;20551;-73
2022/03/03 00:08:30;;;;;;;15.63;8.52;;;;;;;;;;5061148;28;20025;-72
2022/03/03 00:10:55;;;;;;;16.88;9.15;;;;;;;;;;5042527;28;20032;-72
2022/03/03 00:13:21;;;;;;;16.08;8.43;;;;;;;;;;5065336;28;20043;-73
2022/03/03 00:15:46;;;;;;;16.05;8.23;;;;;;;;;;5065548;28;20028;-73
2022/03/03 00:18:11;;;;;;;14.25;7.55;;;;;;;;;;5065763;28;20468;-72
2022/03/03 00:20:36;;;;;;;18.35;9.20;;;;;;;;;;5065875;28;20024;-72
2022/03/03 00:23:01;;;;;;;12.98;8.82;;;;;;;;;;5064044;28;20031;-73
2022/03/03 00:25:27;;;;;;;21.02;8.95;;;;;;;;;;5063415;28;20460;-73
2022/03/03 00:27:52;;;;;;;17.85;9.60;;;;;;;;;;5063469;28;20039;-72
2022/03/03 00:30:17;;;;;;;16.52;9.50;;;;;;;;;;5062479;28;20032;-72
2022/03/03 00:32:43;;;;;;;10.82;8.00;;;;;;;;;;5064159;28;20017;-72
2022/03/03 00:35:09;;;;;;;13.93;8.38;;;;;;;;;;5063569;28;20443;-73
2022/03/03 00:37:34;;;;;;;15.20;8.68;;;;;;;;;;5043218;28;20033;-72
2022/03/03 00:39:59;;;;;;;13.38;7.97;;;;;;;;;;5062859;28;20026;-72
2022/03/03 00:42:25;;;;;;;14.77;9.30;;;;;;;;;;5063611;28;20017;-72
2022/03/03 00:44:50;;;;;;;16.90;9.05;;;;;;;;;;5046272;28;20025;-73
2022/03/03 00:47:15;;;;;;;17.83;9.00;;;;;;;;;;5064187;28;20025;-72
2022/03/03 00:49:40;;;;;;;19.73;9.57;;;;;;;;;;5040194;28;20024;-72
2022/03/03 00:52:05;;;;;;;12.93;9.15;;;;;;;;;;5041554;28;20028;-72
2022/03/03 00:54:31;;;;;;;19.65;10.07;;;;;;;;;;5044995;28;20020;-72
2022/03/03 00:56:56;;;;;;;18.77;9.20;;;;;;;;;;5063952;28;20025;-72
2022/03/03 00:59:21;;;;;;;21.08;11.20;;;;;;;;;;5064803;28;20028;-73
2022/03/03 01:01:47;;;;;;;24.77;11.20;;;;;;;;;;5041427;28;20040;-73
2022/03/03 01:04:13;;;;;;;19.70;10.55;;;;;;;;;;5064697;28;20480;-71
2022/03/03 01:06:38;;;;;;;19.05;10.95;;;;;;;;;;5064212;28;20107;-72
2022/03/03 01:09:03;;;;;;;21.70;11.13;;;;;;;;;;5061391;28;20452;-73
2022/03/03 01:11:29;;;;;;;23.77;11.82;;;;;;;;;;5064443;28;20024;-71
2022/03/03 01:13:54;;;;;;;27.42;11.85;;;;;;;;;;5063277;28;20981;-72
2022/03/03 01:16:19;;;;;;;21.42;11.98;;;;;;;;;;5061704;28;20028;-72
2022/03/03 01:18:44;;;;;;;23.15;10.85;;;;;;;;;;5063492;28;20058;-72
2022/03/03 01:21:09;;;;;;;20.52;10.93;;;;;;;;;;5063755;28;20477;-72
2022/03/03 01:23:35;;;;;;;19.92;10.70;;;;;;;;;;5062500;28;20024;-72
2022/03/03 01:26:00;;;;;;;26.52;11.27;;;;;;;;;;5040520;28;20016;-73
2022/03/03 01:28:25;;;;;;;20.20;10.88;;;;;;;;;;5063914;28;20060;-72
2022/03/03 01:30:50;;;;;;;18.95;10.82;;;;;;;;;;5061523;28;20033;-72
2022/03/03 01:33:15;;;;;;;21.20;11.00;;;;;;;;;;5062270;28;20024;-71
2022/03/03 01:35:41;;;;;;;16.92;9.98;;;;;;;;;;5062544;28;20489;-72
2022/03/03 01:38:06;;;;;;;21.63;10.35;;;;;;;;;;5045992;28;20016;-71
2022/03/03 01:40:31;;;;;;;20.45;11.15;;;;;;;;;;5063039;28;20586;-72
2022/03/03 01:42:57;;;;;;;20.92;11.00;;;;;;;;;;5063051;28;20107;-72
2022/03/03 01:45:22;;;;;;;20.23;10.32;;;;;;;;;;5062661;28;20062;-72
2022/03/03 01:47:47;;;;;;;22.42;11.65;;;;;;;;;;5063899;28;20111;-72
2022/03/03 01:50:13;;;;;;;17.42;9.80;;;;;;;;;;5062271;28;20025;-72
2022/03/03 01:52:38;;;;;;;14.95;9.95;;;;;;;;;;5063054;28;20473;-72
2022/03/03 01:55:03;;;;;;;27.23;11.13;;;;;;;;;;5061853;28;20101;-72
2022/03/03 01:57:28;;;;;;;19.55;10.88;;;;;;;;;;5041725;28;20097;-72
2022/03/03 01:59:54;;;;;;;18.55;10.35;;;;;;;;;;5063830;28;20028;-72
2022/03/03 02:02:19;;;;;;;21.30;10.60;;;;;;;;;;5063342;28;20048;-72
2022/03/03 02:04:44;;;;;;;17.13;10.05;;;;;;;;;;5041583;28;20020;-71
2022/03/03 02:07:10;;;;;;;19.27;10.70;;;;;;;;;;5053460;28;20423;-71
2022/03/03 02:09:35;;;;;;;20.80;10.90;;;;;;;;;;5064230;28;20025;-72
2022/03/03 02:12:01;;;;;;;21.08;10.50;;;;;;;;;;5041742;28;20398;-72
2022/03/03 02:14:26;;;;;;;16.02;9.80;;;;;;;;;;5042428;28;20035;-71
2022/03/03 02:16:51;;;;;;;20.75;10.27;;;;;;;;;;5064120;28;21279;-72
2022/03/03 02:19:17;;;;;;;23.20;11.27;;;;;;;;;;5063539;28;20845;-72
2022/03/03 02:21:44;;;;;;;18.80;11.45;;;;;;;;;;5063661;28;20051;-71
2022/03/03 02:24:09;;;;;;;20.23;11.00;;;;;;;;;;5064084;28;20025;-71
2022/03/03 02:26:34;;;;;;;19.50;10.90;;;;;;;;;;5063785;28;20027;-72
2022/03/03 02:29:00;;;;;;;20.63;11.32;;;;;;;;;;5065845;28;20025;-72
2022/03/03 02:31:25;;;;;;;21.15;11.05;;;;;;;;;;5066741;28;20059;-72
2022/03/03 02:33:50;;;;;;;21.40;11.50;;;;;;;;;;5065661;28;20017;-72
2022/03/03 02:36:20;;;;;;;18.38;11.23;;;;;;;;;;5043920;28;20311;-71
2022/03/03 02:38:45;;;;;;;19.38;11.30;;;;;;;;;;5025537;28;20565;-71
2022/03/03 02:41:10;;;;;;;22.38;11.75;;;;;;;;;;5065101;28;20052;-72
2022/03/03 02:43:36;;;;;;;19.90;11.75;;;;;;;;;;5046844;28;20798;-72
2022/03/03 02:46:01;;;;;;;20.38;12.02;;;;;;;;;;5066056;28;20024;-72
2022/03/03 02:48:27;;;;;;;19.55;11.98;;;;;;;;;;5066919;28;20039;-72
2022/03/03 02:50:52;;;;;;;19.45;10.98;;;;;;;;;;5066243;28;20142;-71
2022/03/03 02:53:17;;;;;;;26.30;12.35;;;;;;;;;;5043656;28;20508;-71
2022/03/03 02:55:42;;;;;;;18.33;11.50;;;;;;;;;;5067014;28;20024;-72
2022/03/03 02:58:07;;;;;;;21.08;11.60;;;;;;;;;;5066769;28;20071;-72
2022/03/03 03:00:39;;;;;;;19.00;11.55;;;;;;;;;;5047885;28;20556;-72
2022/03/03 03:03:04;;;;;;;24.80;11.80;;;;;;;;;;5066211;28;20756;-72
2022/03/03 03:05:29;;;;;;;22.17;11.50;;;;;;;;;;5043787;28;20021;-72
2022/03/03 03:07:54;;;;;;;24.52;11.25;;;;;;;;;;5065790;28;20033;-72
2022/03/03 03:10:19;;;;;;;18.90;11.40;;;;;;;;;;5066796;28;20059;-72
2022/03/03 03:12:45;;;;;;;25.60;11.77;;;;;;;;;;5066955;28;20528;-72
2022/03/03 03:15:10;;;;;;;24.77;11.40;;;;;;;;;;5067232;28;20034;-71
2022/03/03 03:17:35;;;;;;;20.88;11.75;;;;;;;;;;5065700;28;20019;-72
2022/03/03 03:20:00;;;;;;;20.17;11.63;;;;;;;;;;5065624;28;20025;-71
2022/03/03 03:22:26;;;;;;;20.50;11.25;;;;;;;;;;5065527;28;20027;-72
2022/03/03 03:24:51;;;;;;;20.55;11.05;;;;;;;;;;5063490;28;20047;-72
2022/03/03 03:27:16;;;;;;;20.48;10.60;;;;;;;;;;5043417;28;20033;-72
2022/03/03 03:29:41;;;;;;;24.38;12.10;;;;;;;;;;5065316;28;20024;-72
2022/03/03 03:32:06;;;;;;;21.92;11.63;;;;;;;;;;5065156;28;20056;-71
2022/03/03 03:34:32;;;;;;;20.90;12.23;;;;;;;;;;5063864;28;20126;-71
2022/03/03 03:36:57;;;;;;;19.45;10.98;;;;;;;;;;5053204;28;20039;-72
2022/03/03 03:39:22;;;;;;;20.42;11.52;;;;;;;;;;5030622;28;20021;-71
2022/03/03 03:41:47;;;;;;;21.67;11.50;;;;;;;;;;5065118;28;20043;-71
2022/03/03 03:44:13;;;;;;;17.77;11.27;;;;;;;;;;5063105;28;20051;-72
2022/03/03 03:46:38;;;;;;;18.52;11.23;;;;;;;;;;5065297;28;20653;-72
2022/03/03 03:49:03;;;;;;;25.23;11.25;;;;;;;;;;5065766;28;20447;-71
2022/03/03 03:51:28;;;;;;;17.95;10.55;;;;;;;;;;5044113;28;20702;-71
2022/03/03 03:53:53;;;;;;;19.10;10.48;;;;;;;;;;5064870;28;20035;-71
2022/03/03 03:56:19;;;;;;;18.88;10.65;;;;;;;;;;5066259;28;20020;-71
2022/03/03 03:58:44;;;;;;;22.88;11.80;;;;;;;;;;5066417;28;20416;-71
2022/03/03 04:01:09;;;;;;;21.88;10.98;;;;;;;;;;5064297;28;20039;-71
2022/03/03 04:03:34;;;;;;;18.13;10.38;;;;;;;;;;5066057;28;20115;-71
2022/03/03 04:05:59;;;;;;;15.35;9.10;;;;;;;;;;5064989;28;20488;-72
2022/03/03 04:08:25;;;;;;;18.92;10.23;;;;;;;;;;5065169;28;20017;-71
2022/03/03 04:10:50;;;;;;;20.17;9.68;;;;;;;;;;5065859;28;20577;-71
2022/03/03 04:13:15;;;;;;;19.25;9.88;;;;;;;;;;5066480;28;20020;-70
2022/03/03 04:15:41;;;;;;;20.58;9.93;;;;;;;;;;5065006;28;20652;-70
2022/03/03 04:18:06;;;;;;;18.08;10.48;;;;;;;;;;5064772;28;20492;-70
2022/03/03 04:20:31;;;;;;;16.20;10.05;;;;;;;;;;5042556;28;20027;-70
2022/03/03 04:22:56;;;;;;;18.83;10.20;;;;;;;;;;5047228;28;20593;-70
2022/03/03 04:25:21;;;;;;;20.20;9.57;;;;;;;;;;5064925;28;20019;-70
2022/03/03 04:27:47;;;;;;;21.02;10.48;;;;;;;;;;5065700;28;20060;-70
2022/03/03 04:30:12;;;;;;;21.30;11.65;;;;;;;;;;5064914;28;20024;-70
2022/03/03 04:32:37;;;;;;;26.13;11.23;;;;;;;;;;5043185;28;20385;-70
2022/03/03 04:35:03;;;;;;;20.73;10.73;;;;;;;;;;5064484;28;20024;-70
2022/03/03 04:37:29;;;;;;;17.08;9.85;;;;;;;;;;5065688;28;20210;-70
2022/03/03 04:39:54;;;;;;;14.98;9.57;;;;;;;;;;5064669;28;20058;-70
2022/03/03 04:42:19;;;;;;;18.92;9.75;;;;;;;;;;5063374;28;20472;-70
2022/03/03 04:44:44;;;;;;;19.73;9.85;;;;;;;;;;5063643;28;20443;-70
2022/03/03 04:47:09;;;;;;;18.60;9.55;;;;;;;;;;5046599;28;20124;-70
2022/03/03 04:49:35;;;;;;;16.00;9.27;;;;;;;;;;5045733;28;20069;-70
2022/03/03 04:52:00;;;;;;;14.57;9.13;;;;;;;;;;5064566;28;20028;-70
2022/03/03 04:54:25;;;;;;;18.75;9.85;;;;;;;;;;5064213;28;20393;-69
2022/03/03 04:56:52;;;;;;;20.75;9.65;;;;;;;;;;5042112;28;20025;-70
2022/03/03 04:59:17;;;;;;;14.40;8.63;;;;;;;;;;5065487;28;20024;-70
2022/03/03 05:01:42;;;;;;;19.52;9.00;;;;;;;;;;5063063;28;20093;-70
2022/03/03 05:04:07;;;;;;;15.38;9.38;;;;;;;;;;5064575;28;20032;-70
2022/03/03 05:06:33;;;;;;;18.27;9.68;;;;;;;;;;5046484;28;20119;-69
2022/03/03 05:08:58;;;;;;;16.23;9.20;;;;;;;;;;5046751;28;20119;-69
2022/03/03 05:11:23;;;;;;;22.67;10.70;;;;;;;;;;5064560;28;20048;-70
2022/03/03 05:13:48;;;;;;;16.63;10.30;;;;;;;;;;5063650;28;20477;-70
2022/03/03 05:16:13;;;;;;;17.50;9.00;;;;;;;;;;5046839;28;20020;-70
2022/03/03 05:18:39;;;;;;;21.70;9.93;;;;;;;;;;5046305;28;20302;-70
2022/03/03 05:21:04;;;;;;;16.55;9.20;;;;;;;;;;5064013;28;20173;-70
2022/03/03 05:23:29;;;;;;;14.23;8.98;;;;;;;;;;5063910;28;20020;-70
2022/03/03 05:25:55;;;;;;;17.70;9.50;;;;;;;;;;5042170;28;20137;-70
2022/03/03 05:28:20;;;;;;;17.75;9.20;;;;;;;;;;5063443;28;20417;-70
2022/03/03 05:30:45;;;;;;;15.95;8.82;;;;;;;;;;5041175;28;20078;-70
2022/03/03 05:33:10;;;;;;;19.17;9.90;;;;;;;;;;5063242;28;20024;-70
2022/03/03 05:35:36;;;;;;;14.77;9.52;;;;;;;;;;5040884;28;20426;-70
2022/03/03 05:38:01;;;;;;;17.65;8.77;;;;;;;;;;5043967;28;20316;-70
2022/03/03 05:40:26;;;;;;;15.35;9.80;;;;;;;;;;5064730;28;20096;-70
2022/03/03 05:42:51;;;;;;;22.85;9.55;;;;;;;;;;5044438;28;20059;-70
2022/03/03 05:45:16;;;;;;;20.95;10.57;;;;;;;;;;5043270;28;20024;-69
2022/03/03 05:47:42;;;;;;;19.02;10.10;;;;;;;;;;5043753;28;20041;-70
2022/03/03 05:50:07;;;;;;;16.17;9.82;;;;;;;;;;5046795;28;20082;-69
2022/03/03 05:52:32;;;;;;;22.60;10.57;;;;;;;;;;5044205;28;20029;-70
2022/03/03 05:54:58;;;;;;;23.23;10.82;;;;;;;;;;5062323;28;20473;-70
2022/03/03 05:57:34;;;;;;;22.10;10.98;;;;;;;;;;5046526;28;20028;-70
2022/03/03 06:00:07;;;;;;;25.88;10.35;;;;;;;;;;5045746;28;20032;-70
2022/03/03 06:02:32;;;;;;;21.75;11.02;;;;;;;;;;5031850;28;20056;-70
2022/03/03 06:04:57;;;;;;;21.63;10.80;;;;;;;;;;5067058;28;20052;-70
2022/03/03 06:07:25;;;;;;;21.38;10.68;;;;;;;;;;5049138;28;20669;-70
2022/03/03 06:09:54;;;;;;;22.17;9.85;;;;;;;;;;5049489;28;20094;-69
2022/03/03 06:12:29;;;;;;;22.38;11.45;;;;;;;;;;5066779;28;20028;-70
2022/03/03 06:14:55;;;;;;;23.08;10.70;;;;;;;;;;5048062;28;20041;-69
2022/03/03 06:17:24;;;;;;;19.63;10.27;;;;;;;;;;5062754;28;20035;-69
2022/03/03 06:19:51;;;;;;;22.23;9.98;;;;;;;;;;5050653;28;20146;-71
2022/03/03 06:22:17;;;;;;;18.50;10.15;;;;;;;;;;5052350;28;20028;-68
2022/03/03 06:24:42;;;;;;;20.52;9.73;;;;;;;;;;5066671;28;20024;-71
2022/03/03 06:27:08;;;;;;;22.75;9.25;;;;;;;;;;5067730;28;20558;-70
2022/03/03 06:29:33;;;;;;;19.05;9.23;;;;;;;;;;5051210;28;20037;-71
2022/03/03 06:31:58;;;;;;;14.52;8.75;;;;;;;;;;5058218;28;20533;-70
2022/03/03 06:34:24;;;;;;;17.27;9.25;;;;;;;;;;5065824;28;20115;-69
2022/03/03 06:36:49;;;;;;;18.42;9.85;;;;;;;;;;5067347;28;20066;-70
2022/03/03 06:39:15;;;;;;;18.65;9.55;;;;;;;;;;5067383;28;20020;-71
2022/03/03 06:41:40;;;;;;;13.95;8.55;;;;;;;;;;5067303;28;20157;-70
2022/03/03 06:44:05;;;;;;;16.67;8.45;;;;;;;;;;5065500;28;20038;-70
2022/03/03 06:46:30;;;;;;;13.95;8.70;;;;;;;;;;5067646;28;20439;-70
2022/03/03 06:48:55;;;;;;;16.80;8.43;;;;;;;;;;5063989;28;20516;-70
2022/03/03 06:51:22;;;;;;;18.52;9.13;;;;;;;;;;5064101;28;20109;-70
2022/03/03 06:53:47;;;;;;;18.15;9.43;;;;;;;;;;5067505;28;20021;-71
2022/03/03 06:56:12;;;;;;;15.43;8.90;;;;;;;;;;5063715;28;20024;-71
2022/03/03 06:58:38;;;;;;;14.48;8.32;;;;;;;;;;5064251;28;20326;-70
2022/03/03 07:01:04;;;;;;;15.00;8.65;;;;;;;;;;5067727;28;20438;-71
2022/03/03 07:03:30;;;;;;;15.02;8.60;;;;;;;;;;5066315;28;20503;-71
2022/03/03 07:05:55;;;;;;;17.33;9.15;;;;;;;;;;5065061;28;20036;-71
2022/03/03 07:08:20;;;;;;;15.50;8.30;;;;;;;;;;5065260;28;20025;-70
2022/03/03 07:10:46;;;;;;;16.65;8.70;;;;;;;;;;5064181;28;20581;-70
2022/03/03 07:13:12;;;;;;;17.83;8.63;;;;;;;;;;5066630;28;21385;-70
2022/03/03 07:15:37;;;;;;;17.48;8.55;;;;;;;;;;5062576;28;20385;-71
2022/03/03 07:18:06;;;;;;;14.52;8.10;;;;;;;;;;5066125;28;20020;-70
2022/03/03 07:20:34;;;;;;;16.63;8.63;;;;;;;;;;5064365;28;20021;-70
2022/03/03 07:23:18;;;;;;;15.65;8.55;;;;;;;;;;5066999;28;20108;-71
2022/03/03 07:25:47;;;;;;;17.70;8.63;;;;;;;;;;5064917;28;20016;-71
2022/03/03 07:28:12;;;;;;;14.90;8.85;;;;;;;;;;5065386;28;20074;-70
2022/03/03 07:30:41;;;;;;;13.88;8.43;;;;;;;;;;5065211;28;20028;-71
2022/03/03 07:33:06;;;;;;;17.58;9.32;;;;;;;;;;5066031;28;20025;-71
2022/03/03 07:35:32;;;;;;;17.35;8.13;;;;;;;;;;5062578;28;20024;-70
2022/03/03 07:38:19;;;;;;;17.35;8.43;;;;;;;;;;5063171;28;20086;-69
2022/03/03 07:40:44;;;;;;;15.10;8.00;;;;;;;;;;5065406;28;20021;-70
2022/03/03 07:43:10;;;;;;;15.30;8.10;;;;;;;;;;5065925;28;20030;-70
2022/03/03 07:45:35;;;;;;;11.55;7.38;;;;;;;;;;5066504;28;20028;-70
2022/03/03 07:48:00;;;;;;;15.98;8.40;;;;;;;;;;5064865;28;20016;-70
2022/03/03 07:50:26;;;;;;;12.30;7.80;;;;;;;;;;5064937;28;20128;-70
2022/03/03 07:52:51;;;;;;;11.13;7.13;;;;;;;;;;5067194;28;20023;-70
2022/03/03 07:55:16;;;;;;;15.02;8.10;;;;;;;;;;5065378;28;20012;-71
2022/03/03 07:57:44;;;;;;;13.82;6.95;;;;;;;;;;5057938;28;20040;-70
2022/03/03 08:00:10;;;;;;;15.30;6.22;;;;;;;;;;5062171;28;20059;-70
2022/03/03 08:02:36;;;;;;;9.07;5.57;;;;;;;;;;5065902;28;20262;-70
2022/03/03 08:05:01;;;;;;;9.90;4.65;;;;;;;;;;5064337;28;20040;-71
2022/03/03 08:07:26;;;;;;;7.53;4.45;;;;;;;;;;5062938;28;20553;-71
2022/03/03 08:09:53;;;;;;;10.63;5.68;;;;;;;;;;5064418;28;20485;-70
2022/03/03 08:12:18;;;;;;;11.77;4.47;;;;;;;;;;5065626;28;20029;-70
2022/03/03 08:14:44;;;;;;;7.75;4.60;;;;;;;;;;5062110;28;20450;-71
2022/03/03 08:17:12;;;;;;;7.68;4.40;;;;;;;;;;5066991;28;20017;-71
2022/03/03 08:19:37;;;;;;;9.52;4.05;;;;;;;;;;5062398;28;20044;-71
2022/03/03 08:22:02;;;;;;;7.60;4.15;;;;;;;;;;5080872;28;20028;-71
2022/03/03 08:24:28;;;;;;;7.70;3.80;;;;;;;;;;5063399;28;20086;-71
2022/03/03 08:26:56;;;;;;;6.32;3.65;;;;;;;;;;5065518;28;20036;-70
2022/03/03 08:29:21;;;;;;;7.43;4.25;;;;;;;;;;5064983;28;20548;-69
2022/03/03 08:31:52;;;;;;;5.00;3.72;;;;;;;;;;5060158;28;20142;-70
2022/03/03 08:34:18;;;;;;;7.10;4.13;;;;;;;;;;5060578;28;20043;-70
2022/03/03 08:36:48;;;;;;;8.95;4.10;;;;;;;;;;5064694;28;20024;-70
2022/03/03 08:39:14;;;;;;;8.98;4.43;;;;;;;;;;5064501;28;20024;-70
2022/03/03 08:41:40;;;;;;;7.60;3.80;;;;;;;;;;5042702;28;20085;-70
2022/03/03 08:44:07;;;;;;;7.13;4.30;;;;;;;;;;5063833;28;20021;-70
2022/03/03 08:46:32;;;;;;;9.82;4.65;;;;;;;;;;5064928;28;20016;-70
2022/03/03 08:48:58;;;;;;;7.30;4.07;;;;;;;;;;5062562;28;20081;-71
2022/03/03 08:51:24;;;;;;;7.38;4.22;;;;;;;;;;5061338;28;20636;-70
2022/03/03 08:53:49;;;;;;;8.82;4.68;;;;;;;;;;5064503;28;20029;-71
2022/03/03 08:56:14;;;;;;;8.50;4.75;;;;;;;;;;5063662;28;20020;-71
2022/03/03 08:58:39;;;;;;;6.93;4.25;;;;;;;;;;5063757;28;20078;-71
2022/03/03 09:01:04;;;;;;;8.13;5.00;;;;;;;;;;5062258;28;20032;-71
2022/03/03 09:03:30;;;;;;;9.57;5.63;;;;;;;;;;5060835;28;20017;-71
2022/03/03 09:05:56;;;;;;;7.43;4.55;;;;;;;;;;5060731;28;20024;-70
2022/03/03 09:08:21;;;;;;;7.25;4.63;;;;;;;;;;5062314;28;20568;-70
2022/03/03 09:10:48;;;;;;;7.18;4.88;;;;;;;;;;5063641;28;20096;-70
2022/03/03 09:13:13;;;;;;;7.88;4.22;;;;;;;;;;5065609;28;20111;-70
2022/03/03 09:15:39;;;;;;;7.22;5.03;;;;;;;;;;5063051;28;20209;-70
2022/03/03 09:18:05;;;;;;;7.38;4.82;;;;;;;;;;5065098;28;20020;-69
2022/03/03 09:20:30;;;;;;;13.82;5.32;;;;;;;;;;5063574;28;20028;-71
2022/03/03 09:22:55;;;;;;;9.50;6.20;;;;;;;;;;5051239;28;20024;-71
2022/03/03 09:25:20;;;;;;;9.18;5.95;;;;;;;;;;5060100;28;20036;-71
2022/03/03 09:27:45;;;;;;;10.73;6.35;;;;;;;;;;5062965;28;20102;-71
2022/03/03 09:30:11;;;;;;;13.05;6.13;;;;;;;;;;5062878;28;20047;-71
2022/03/03 09:32:36;;;;;;;9.50;6.10;;;;;;;;;;5063202;28;20020;-71
2022/03/03 09:35:02;;;;;;;8.23;5.75;;;;;;;;;;5062373;28;20020;-71
2022/03/03 09:37:27;;;;;;;11.38;6.47;;;;;;;;;;5059634;28;20108;-71
2022/03/03 09:39:52;;;;;;;12.90;6.35;;;;;;;;;;5062350;28;20051;-70
2022/03/03 09:42:17;;;;;;;9.77;6.07;;;;;;;;;;5058162;28;20021;-70
2022/03/03 09:44:43;;;;;;;11.00;6.72;;;;;;;;;;5061281;28;20020;-70
2022/03/03 09:47:11;;;;;;;10.43;6.07;;;;;;;;;;5062631;28;20736;-70
2022/03/03 09:49:36;;;;;;;10.77;6.03;;;;;;;;;;5057474;28;20026;-71
2022/03/03 09:52:02;;;;;;;10.30;5.70;;;;;;;;;;5064092;28;20016;-72
2022/03/03 09:54:27;;;;;;;12.63;6.68;;;;;;;;;;5058597;28;20020;-70
2022/03/03 09:56:52;;;;;;;12.27;6.68;;;;;;;;;;5063934;28;20099;-70
2022/03/03 09:59:18;;;;;;;15.75;7.70;;;;;;;;;;5064614;28;20135;-70
2022/03/03 10:01:45;;;;;;;10.88;6.82;;;;;;;;;;5056492;28;20131;-70
2022/03/03 10:04:20;;;;;;;12.55;7.47;;;;;;;;;;5064018;28;20384;-71
2022/03/03 10:06:45;;;;;;;13.40;7.68;;;;;;;;;;5063044;28;20023;-70
2022/03/03 10:09:11;;;;;;;12.57;7.32;;;;;;;;;;5059386;28;20024;-71
2022/03/03 10:11:49;;;;;;;15.40;7.38;;;;;;;;;;5061736;28;20021;-71
2022/03/03 10:14:24;;;;;;;12.88;7.70;;;;;;;;;;5058898;28;20098;-70
2022/03/03 10:16:50;;;;;;;14.00;7.47;;;;;;;;;;5059992;28;20028;-71
2022/03/03 10:19:15;;;;;;;12.77;7.25;;;;;;;;;;5063281;28;20016;-70
2022/03/03 10:21:41;;;;;;;13.02;7.88;;;;;;;;;;5062021;28;20500;-71
2022/03/03 10:24:16;;;;;;;18.25;8.48;;;;;;;;;;5043356;28;20025;-70
2022/03/03 10:26:44;;;;;;;16.35;9.35;;;;;;;;;;5063207;28;20385;-70
2022/03/03 10:29:19;;;;;;;20.38;9.13;;;;;;;;;;5053581;28;20044;-71
2022/03/03 10:31:50;;;;;;;15.10;9.38;;;;;;;;;;5039119;28;20043;-70
2022/03/03 10:34:22;;;;;;;16.92;9.13;;;;;;;;;;5060610;28;20507;-70
2022/03/03 10:36:57;;;;;;;18.73;9.80;;;;;;;;;;5062322;28;20099;-70
2022/03/03 10:39:22;;;;;;;16.98;9.77;;;;;;;;;;5058230;28;20017;-71
2022/03/03 10:41:48;;;;;;;15.45;9.00;;;;;;;;;;5064228;28;20040;-70
2022/03/03 10:44:15;;;;;;;17.25;9.40;;;;;;;;;;5046442;28;20130;-71
2022/03/03 10:47:00;;;;;;;16.02;9.13;;;;;;;;;;5042403;28;20306;-70
2022/03/03 10:49:25;;;;;;;17.73;9.48;;;;;;;;;;5062466;28;20441;-70
2022/03/03 10:51:50;;;;;;;17.45;9.90;;;;;;;;;;5065112;28;20058;-70
2022/03/03 10:54:16;;;;;;;17.88;9.45;;;;;;;;;;5065820;28;20024;-70
2022/03/03 10:56:48;;;;;;;20.48;10.15;;;;;;;;;;5069774;28;20028;-71
2022/03/03 10:59:23;;;;;;;18.65;10.13;;;;;;;;;;5064480;28;20035;-72
2022/03/03 11:01:49;;;;;;;18.13;9.63;;;;;;;;;;5047675;28;20037;-72
2022/03/03 11:04:17;;;;;;;17.70;9.60;;;;;;;;;;5063311;28;20024;-71
2022/03/03 11:06:43;;;;;;;19.10;10.77;;;;;;;;;;5061117;28;20107;-71
2022/03/03 11:09:09;;;;;;;15.68;9.45;;;;;;;;;;5063181;28;20020;-71
2022/03/03 11:11:34;;;;;;;16.88;9.73;;;;;;;;;;5062928;28;20043;-72
2022/03/03 11:13:59;;;;;;;20.02;10.73;;;;;;;;;;5066921;28;20108;-72
2022/03/03 11:16:25;;;;;;;18.08;11.10;;;;;;;;;;5059667;28;20051;-72
2022/03/03 11:18:51;;;;;;;18.15;10.93;;;;;;;;;;5063165;28;20091;-72
2022/03/03 11:21:17;;;;;;;23.67;12.52;;;;;;;;;;5060271;28;20048;-72
2022/03/03 11:23:47;;;;;;;18.52;11.13;;;;;;;;;;5061326;28;20527;-71
2022/03/03 11:26:21;;;;;;;23.33;11.75;;;;;;;;;;5059913;28;20036;-72
2022/03/03 11:29:00;;;;;;;;;;;;;;;;;;5063936;28;20044;-71
2022/03/03 11:31:30;;;;;;;21.17;10.70;;;;;;;;;;5046420;28;19920;-70
2022/03/03 11:34:20;;;;;;;19.52;12.35;;;;;;;;;;5049051;28;20028;-71
2022/03/03 11:36:46;;;;;;;17.85;10.50;;;;;;;;;;5067333;28;20104;-71
2022/03/03 11:39:39;;;;;;;19.35;12.00;;;;;;;;;;5061997;28;20119;-70
2022/03/03 11:42:26;;;;;;;20.90;11.75;;;;;;;;;;5063707;28;20029;-71
2022/03/03 11:44:59;;;;;;;19.63;11.40;;;;;;;;;;5063920;28;20104;-71
2022/03/03 11:47:30;;;;;;;23.20;11.67;;;;;;;;;;5063843;28;20516;-71
2022/03/03 11:49:59;;;;;;;18.88;11.40;;;;;;;;;;5061668;28;20954;-71
2022/03/03 11:52:24;;;;;;;18.20;11.18;;;;;;;;;;5066263;28;20031;-71
2022/03/03 11:54:57;;;;;;;21.17;12.27;;;;;;;;;;5030112;28;20552;-71
2022/03/03 11:57:27;;;;;;;23.10;11.38;;;;;;;;;;5060984;28;20108;-70
2022/03/03 11:59:52;;;;;;;21.27;12.63;;;;;;;;;;5048780;28;20028;-71
2022/03/03 12:02:18;;;;;;;22.02;11.90;;;;;;;;;;5063795;28;20024;-71
2022/03/03 12:04:44;;;;;;;20.48;10.98;;;;;;;;;;5064560;28;20023;-71
2022/03/03 12:07:28;;;;;;;22.63;12.73;;;;;;;;;;5063810;28;20024;-71
2022/03/03 12:09:56;;;;;;;20.80;11.88;;;;;;;;;;5063076;28;20411;-71
2022/03/03 12:12:22;;;;;;;17.42;10.63;;;;;;;;;;5065399;28;20035;-71
2022/03/03 12:14:53;;;;;;;19.15;10.98;;;;;;;;;;5063510;28;20034;-71
2022/03/03 12:17:44;;;;;;;19.75;11.23;;;;;;;;;;5063620;28;20042;-71
2022/03/03 12:20:27;;;;;;;22.90;11.20;;;;;;;;;;5063368;28;20016;-71
2022/03/03 12:23:11;;;;;;;18.95;10.27;;;;;;;;;;5065491;28;20032;-71
2022/03/03 12:25:50;;;;;;;18.55;12.23;;;;;;;;;;5063122;28;20049;-71
2022/03/03 12:28:19;;;;;;;20.80;11.45;;;;;;;;;;5066749;28;20032;-71
2022/03/03 12:30:45;;;;;;;18.50;11.98;;;;;;;;;;5062482;28;20033;-71
2022/03/03 12:33:27;;;;;;;20.30;11.48;;;;;;;;;;5065275;28;20048;-70
2022/03/03 12:35:59;;;;;;;21.02;12.57;;;;;;;;;;5061647;28;20264;-71
2022/03/03 12:38:24;;;;;;;21.58;11.80;;;;;;;;;;5063497;28;20524;-71
2022/03/03 12:40:50;;;;;;;20.85;11.88;;;;;;;;;;5064777;28;20035;-70
2022/03/03 12:43:17;;;;;;;19.67;12.00;;;;;;;;;;5064518;28;20407;-71
2022/03/03 12:45:45;;;;;;;21.17;11.88;;;;;;;;;;5063275;28;20020;-71
2022/03/03 12:48:11;;;;;;;18.98;11.48;;;;;;;;;;5047370;28;20044;-71
2022/03/03 12:50:37;;;;;;;22.70;12.70;;;;;;;;;;5046187;28;20154;-71
2022/03/03 12:53:11;;;;;;;21.20;12.13;;;;;;;;;;5061755;28;20062;-71
2022/03/03 12:55:38;;;;;;;21.83;12.20;;;;;;;;;;5059685;28;20020;-70
2022/03/03 12:58:07;;;;;;;19.55;12.00;;;;;;;;;;5063869;28;20143;-70
2022/03/03 13:00:34;;;;;;;20.52;12.07;;;;;;;;;;5059240;28;20496;-70
2022/03/03 13:03:00;;;;;;;26.20;12.73;;;;;;;;;;5064420;28;20025;-70
2022/03/03 13:05:34;;;;;;;26.95;12.45;;;;;;;;;;5059932;28;20427;-69
2022/03/03 13:08:00;;;;;;;21.30;12.43;;;;;;;;;;5062499;28;20099;-70
2022/03/03 13:10:25;;;;;;;22.73;12.32;;;;;;;;;;5060804;28;20017;-69
2022/03/03 13:12:55;;;;;;;22.35;12.05;;;;;;;;;;5064722;28;20035;-71
2022/03/03 13:15:33;;;;;;;21.88;12.52;;;;;;;;;;5061397;28;20020;-70
2022/03/03 13:18:10;;;;;;;23.17;12.63;;;;;;;;;;5063966;28;20023;-69
2022/03/03 13:20:40;;;;;;;25.23;13.15;;;;;;;;;;5045071;28;20037;-71
2022/03/03 13:23:08;;;;;;;23.08;12.27;;;;;;;;;;5063419;28;20225;-70
2022/03/03 13:25:33;;;;;;;22.73;12.45;;;;;;;;;;5048523;28;20035;-70
2022/03/03 13:27:59;;;;;;;21.85;13.10;;;;;;;;;;5062881;28;20016;-72
2022/03/03 13:30:24;;;;;;;22.75;12.43;;;;;;;;;;5059852;28;20032;-70
2022/03/03 13:32:50;;;;;;;21.40;12.98;;;;;;;;;;5045030;28;20480;-72
2022/03/03 13:35:16;;;;;;;17.55;11.23;;;;;;;;;;5063104;28;20109;-71
2022/03/03 13:37:41;;;;;;;19.85;12.23;;;;;;;;;;5063756;28;20380;-71
2022/03/03 13:40:24;;;;;;;19.42;13.00;;;;;;;;;;5059290;28;20025;-71
2022/03/03 13:42:55;;;;;;;19.50;12.68;;;;;;;;;;5063763;28;20025;-71
2022/03/03 13:45:25;;;;;;;22.08;12.43;;;;;;;;;;5059226;28;20025;-71
2022/03/03 13:48:06;;;;;;;19.20;12.63;;;;;;;;;;5060403;28;20055;-74
2022/03/03 13:50:32;;;;;;;19.05;13.10;;;;;;;;;;5063068;28;20025;-74
2022/03/03 13:53:17;;;;;;;16.77;12.63;;;;;;;;;;5063092;28;20669;-73
2022/03/03 13:55:42;;;;;;;16.80;12.13;;;;;;;;;;5059562;28;20028;-73
2022/03/03 13:58:08;;;;;;;18.58;12.88;;;;;;;;;;5058474;28;20059;-73
2022/03/03 14:00:41;;;;;;;15.35;12.27;;;;;;;;;;5063157;28;20029;-73
2022/03/03 14:03:10;;;;;;;14.30;11.95;;;;;;;;;;5063916;28;20103;-72
2022/03/03 14:05:51;;;;;;;21.15;12.45;;;;;;;;;;5061728;28;20024;-72
2022/03/03 14:08:29;;;;;;;21.17;13.65;;;;;;;;;;5060343;28;20020;-73
2022/03/03 14:10:57;;;;;;;23.27;12.57;;;;;;;;;;5063724;28;20456;-73
2022/03/03 14:13:24;;;;;;;18.02;12.77;;;;;;;;;;5061143;28;20025;-73
2022/03/03 14:15:50;;;;;;;17.25;12.63;;;;;;;;;;5061432;28;20028;-73
2022/03/03 14:18:17;;;;;;;16.92;12.68;;;;;;;;;;5046348;28;20106;-73
2022/03/03 14:20:43;;;;;;;20.15;12.93;;;;;;;;;;5064260;28;20024;-73
2022/03/03 14:23:08;;;;;;;17.80;13.48;;;;;;;;;;5059913;28;20024;-73
2022/03/03 14:25:33;;;;;;;15.43;11.88;;;;;;;;;;5067242;28;20067;-73